Time;durP1;ratioP1;P1;durP2;ratioP2;P2;SDS_P1;SDS_P2;PMS_P1;PMS_P2;Temp;Humidity;BMP_temperature;BMP_pressure;BME280_temperature;BME280_humidity;BME280_pressure;Samples;Min_cycle;Max_cycle;Signal;HPM_P1;HPM_P2
2021/07/04 00:02:21;;;;;;;2.80;2.22;;;21.40;81.20;;;;;;5009491;28;20041;-61
2021/07/04 00:04:47;;;;;;;2.88;2.30;;;21.40;81.10;;;;;;5011282;28;20034;-60
2021/07/04 00:07:12;;;;;;;3.10;2.40;;;21.40;81.20;;;;;;5010944;28;20109;-61
2021/07/04 00:09:38;;;;;;;2.95;2.25;;;21.40;81.30;;;;;;5009602;28;20087;-61
2021/07/04 00:12:04;;;;;;;2.92;2.30;;;21.40;81.30;;;;;;5025018;28;20100;-60
2021/07/04 00:14:30;;;;;;;2.55;2.35;;;21.40;81.30;;;;;;5024563;28;20037;-61
2021/07/04 00:16:55;;;;;;;5.10;2.20;;;21.40;81.40;;;;;;5027053;28;20026;-61
2021/07/04 00:19:21;;;;;;;2.40;2.20;;;21.40;81.40;;;;;;5007260;28;20034;-61
2021/07/04 00:21:46;;;;;;;3.08;2.35;;;21.30;81.40;;;;;;5006609;28;20046;-61
2021/07/04 00:24:12;;;;;;;2.42;2.22;;;21.30;81.40;;;;;;5029157;28;20320;-61
2021/07/04 00:26:38;;;;;;;2.72;2.38;;;21.30;81.50;;;;;;4995587;28;20481;-61
2021/07/04 00:29:03;;;;;;;3.72;2.55;;;21.30;81.60;;;;;;5029068;28;20022;-60
2021/07/04 00:31:29;;;;;;;2.50;2.17;;;21.30;81.70;;;;;;5013983;28;20441;-61
2021/07/04 00:33:54;;;;;;;2.65;2.30;;;21.30;81.80;;;;;;5019741;28;20037;-61
2021/07/04 00:36:20;;;;;;;3.17;2.40;;;21.30;81.90;;;;;;5016046;28;20036;-61
2021/07/04 00:38:45;;;;;;;3.45;2.65;;;21.30;82.00;;;;;;5028516;28;20478;-62
2021/07/04 00:41:11;;;;;;;3.25;2.38;;;21.30;82.00;;;;;;5017220;28;20028;-61
2021/07/04 00:43:36;;;;;;;3.45;2.30;;;21.30;82.10;;;;;;5032750;28;20045;-61
2021/07/04 00:46:02;;;;;;;2.95;1.85;;;21.30;82.10;;;;;;5012887;28;20108;-61
2021/07/04 00:48:28;;;;;;;3.20;2.50;;;21.30;82.20;;;;;;5031565;28;20133;-62
2021/07/04 00:50:53;;;;;;;3.45;2.30;;;21.20;82.10;;;;;;5012924;28;20034;-61
2021/07/04 00:53:20;;;;;;;3.08;2.53;;;21.20;82.20;;;;;;5017144;28;20401;-61
2021/07/04 00:55:45;;;;;;;2.97;2.30;;;21.20;82.20;;;;;;5016053;28;20105;-62
2021/07/04 00:58:11;;;;;;;2.28;2.08;;;21.20;82.30;;;;;;5034114;28;20113;-62
2021/07/04 01:00:38;;;;;;;2.55;2.13;;;21.20;82.40;;;;;;5015800;28;20048;-61
2021/07/04 01:03:04;;;;;;;2.60;2.40;;;21.20;82.40;;;;;;5028068;28;20072;-62
2021/07/04 01:05:30;;;;;;;2.50;2.30;;;21.20;82.40;;;;;;5012023;28;20026;-60
2021/07/04 01:07:56;;;;;;;2.70;2.20;;;21.20;82.40;;;;;;5021455;28;20029;-60
2021/07/04 01:10:24;;;;;;;2.42;2.10;;;21.20;82.40;;;;;;5015390;28;20145;-61
2021/07/04 01:12:50;;;;;;;2.47;2.22;;;21.10;82.40;;;;;;5007838;28;20021;-61
2021/07/04 01:15:18;;;;;;;2.22;2.00;;;21.10;82.40;;;;;;5012758;28;20058;-61
2021/07/04 01:17:45;;;;;;;2.55;2.30;;;21.10;82.40;;;;;;5032607;28;20044;-61
2021/07/04 01:20:11;;;;;;;2.63;2.22;;;21.10;82.50;;;;;;5028231;28;20026;-61
2021/07/04 01:22:38;;;;;;;3.47;2.10;;;21.10;82.50;;;;;;5017067;28;20568;-61
2021/07/04 01:25:05;;;;;;;3.15;2.65;;;21.10;82.60;;;;;;5016562;28;20033;-62
2021/07/04 01:27:31;;;;;;;3.13;2.17;;;21.10;82.60;;;;;;5017411;28;20046;-62
2021/07/04 01:29:56;;;;;;;2.45;2.10;;;21.10;82.60;;;;;;5017343;28;20030;-62
2021/07/04 01:32:22;;;;;;;2.20;2.00;;;21.00;82.60;;;;;;5036631;28;20477;-61
2021/07/04 01:34:47;;;;;;;2.50;2.30;;;21.00;82.70;;;;;;5032546;28;20056;-60
2021/07/04 01:37:13;;;;;;;2.35;2.00;;;21.10;82.70;;;;;;5012026;28;20032;-62
2021/07/04 01:39:38;;;;;;;2.42;2.10;;;21.00;82.70;;;;;;5031628;28;20117;-62
2021/07/04 01:42:04;;;;;;;3.17;2.28;;;21.00;82.70;;;;;;5016548;28;20035;-61
2021/07/04 01:44:29;;;;;;;2.30;2.10;;;21.00;82.80;;;;;;5028995;28;20056;-61
2021/07/04 01:46:55;;;;;;;5.10;2.15;;;21.00;82.90;;;;;;5016845;28;20101;-61
2021/07/04 01:49:20;;;;;;;2.30;2.10;;;21.00;82.90;;;;;;5013611;28;20376;-61
2021/07/04 01:51:46;;;;;;;2.20;2.00;;;21.00;82.90;;;;;;5020536;28;20075;-61
2021/07/04 01:54:11;;;;;;;2.13;1.92;;;21.00;83.00;;;;;;5016722;28;20826;-60
2021/07/04 01:56:37;;;;;;;3.05;1.90;;;20.90;83.00;;;;;;5020483;28;20044;-60
2021/07/04 01:59:03;;;;;;;4.20;2.20;;;20.90;83.20;;;;;;5016066;28;20124;-61
2021/07/04 02:01:28;;;;;;;2.17;1.98;;;20.90;83.30;;;;;;5009730;28;20017;-61
2021/07/04 02:03:54;;;;;;;2.83;2.40;;;20.90;83.90;;;;;;5011245;28;20515;-60
2021/07/04 02:06:19;;;;;;;2.70;2.50;;;20.90;83.30;;;;;;5018550;28;20095;-60
2021/07/04 02:08:45;;;;;;;2.00;1.90;;;20.90;83.40;;;;;;5029904;28;20080;-61
2021/07/04 02:11:10;;;;;;;2.30;2.10;;;20.90;83.40;;;;;;5012048;28;20025;-61
2021/07/04 02:13:36;;;;;;;2.42;2.10;;;20.90;83.40;;;;;;5030526;28;20036;-60
2021/07/04 02:16:01;;;;;;;2.55;2.22;;;20.90;83.50;;;;;;5015237;28;20045;-62
2021/07/04 02:18:27;;;;;;;3.08;2.40;;;20.90;83.40;;;;;;5014831;28;20034;-61
2021/07/04 02:20:53;;;;;;;2.28;2.08;;;20.90;83.40;;;;;;5019245;28;20045;-61
2021/07/04 02:23:24;;;;;;;3.83;2.28;;;20.80;83.40;;;;;;5019129;28;20092;-60
2021/07/04 02:25:50;;;;;;;2.10;1.92;;;20.80;83.40;;;;;;4994063;28;20536;-61
2021/07/04 02:28:17;;;;;;;2.38;2.17;;;20.80;83.40;;;;;;5026659;28;20026;-61
2021/07/04 02:30:43;;;;;;;3.15;2.05;;;20.80;83.40;;;;;;5025927;28;20026;-62
2021/07/04 02:33:09;;;;;;;2.05;1.85;;;20.80;83.50;;;;;;4986575;28;20026;-61
2021/07/04 02:35:37;;;;;;;4.13;1.92;;;20.80;83.50;;;;;;5006523;28;20722;-61
2021/07/04 02:38:04;;;;;;;2.75;2.03;;;20.80;83.60;;;;;;5010793;28;20097;-61
2021/07/04 02:40:29;;;;;;;3.17;2.22;;;20.80;83.60;;;;;;5012806;28;20029;-62
2021/07/04 02:42:55;;;;;;;2.20;2.00;;;20.80;83.60;;;;;;5027379;28;20095;-60
2021/07/04 02:45:21;;;;;;;2.30;2.10;;;20.80;83.60;;;;;;5011591;28;20034;-62
2021/07/04 02:47:46;;;;;;;3.17;2.17;;;20.80;83.70;;;;;;5029656;28;20025;-61
2021/07/04 02:50:12;;;;;;;2.47;2.00;;;20.80;83.70;;;;;;5011881;28;20033;-60
2021/07/04 02:52:37;;;;;;;2.80;2.22;;;20.80;83.70;;;;;;5021829;28;20045;-60
2021/07/04 02:55:06;;;;;;;2.58;1.98;;;20.70;83.60;;;;;;5011759;28;20030;-60
2021/07/04 02:57:32;;;;;;;3.75;1.85;;;20.80;83.60;;;;;;5029884;28;20297;-61
2021/07/04 02:59:58;;;;;;;2.05;1.80;;;20.70;83.70;;;;;;5008725;28;20410;-61
2021/07/04 03:02:23;;;;;;;3.50;2.08;;;20.70;83.70;;;;;;5025328;28;20030;-61
2021/07/04 03:04:49;;;;;;;3.65;1.90;;;20.70;83.70;;;;;;5016900;28;20040;-61
2021/07/04 03:07:15;;;;;;;2.75;2.20;;;20.70;83.60;;;;;;5010944;28;20030;-61
2021/07/04 03:09:42;;;;;;;2.35;1.88;;;20.70;83.70;;;;;;5013286;28;20450;-61
2021/07/04 03:12:08;;;;;;;2.72;1.77;;;20.70;83.70;;;;;;5025432;28;20478;-60
2021/07/04 03:14:33;;;;;;;4.72;2.20;;;20.70;83.60;;;;;;5025039;28;20038;-61
2021/07/04 03:16:59;;;;;;;5.65;2.67;;;20.70;83.60;;;;;;5010364;28;20018;-61
2021/07/04 03:19:25;;;;;;;3.75;2.03;;;20.70;83.70;;;;;;5028258;28;20473;-61
2021/07/04 03:21:50;;;;;;;2.28;1.98;;;20.70;83.70;;;;;;5013688;28;20052;-61
2021/07/04 03:24:16;;;;;;;2.15;1.95;;;20.70;83.70;;;;;;5013163;28;20026;-60
2021/07/04 03:26:41;;;;;;;2.25;1.88;;;20.70;83.80;;;;;;4991750;28;20038;-60
2021/07/04 03:29:07;;;;;;;2.80;1.90;;;20.70;84.50;;;;;;5028036;28;20033;-61
2021/07/04 03:31:32;;;;;;;3.78;2.33;;;20.70;83.80;;;;;;5010454;28;20060;-61
2021/07/04 03:33:58;;;;;;;4.05;1.90;;;20.70;83.80;;;;;;5010971;28;20057;-62
2021/07/04 03:36:23;;;;;;;1.88;1.67;;;20.70;83.90;;;;;;5022111;28;20104;-61
2021/07/04 03:38:49;;;;;;;2.15;1.88;;;20.70;83.90;;;;;;5007873;28;20442;-61
2021/07/04 03:41:14;;;;;;;3.03;2.08;;;20.70;84.00;;;;;;5022298;28;20499;-61
2021/07/04 03:43:40;;;;;;;2.63;2.00;;;20.70;84.00;;;;;;4988087;28;20088;-61
2021/07/04 03:46:05;;;;;;;2.70;1.90;;;20.70;84.10;;;;;;5022597;28;20435;-61
2021/07/04 03:48:31;;;;;;;2.72;1.70;;;20.70;84.30;;;;;;5005420;28;20068;-61
2021/07/04 03:50:56;;;;;;;3.50;1.90;;;20.70;84.30;;;;;;5001111;28;20097;-61
2021/07/04 03:53:22;;;;;;;1.80;1.70;;;20.70;84.30;;;;;;5006097;28;20030;-61
2021/07/04 03:55:47;;;;;;;2.17;1.80;;;20.70;84.40;;;;;;5020998;28;20033;-60
2021/07/04 03:58:13;;;;;;;5.07;2.08;;;20.70;84.50;;;;;;5009178;28;20033;-60
2021/07/04 04:00:39;;;;;;;3.90;1.92;;;20.70;84.50;;;;;;5009008;28;20393;-61
2021/07/04 04:03:04;;;;;;;2.90;2.00;;;20.70;84.50;;;;;;5006984;28;21530;-61
2021/07/04 04:05:30;;;;;;;3.25;2.10;;;20.70;84.60;;;;;;5009778;28;20109;-60
2021/07/04 04:07:55;;;;;;;2.13;1.80;;;20.60;84.50;;;;;;5010391;28;20018;-61
2021/07/04 04:10:21;;;;;;;2.08;1.90;;;20.60;84.60;;;;;;5031561;28;20381;-60
2021/07/04 04:12:46;;;;;;;4.00;1.90;;;20.60;84.70;;;;;;5025154;28;20033;-61
2021/07/04 04:15:12;;;;;;;3.22;2.00;;;20.60;84.60;;;;;;5028648;28;20034;-61
2021/07/04 04:17:38;;;;;;;5.53;1.88;;;20.60;85.30;;;;;;4989823;28;20440;-61
2021/07/04 04:20:07;;;;;;;3.45;2.20;;;20.60;84.80;;;;;;4995848;28;20473;-61
2021/07/04 04:22:33;;;;;;;3.70;2.00;;;20.60;85.00;;;;;;5008513;28;20053;-60
2021/07/04 04:24:58;;;;;;;2.85;2.00;;;20.60;84.90;;;;;;4983631;28;20034;-62
2021/07/04 04:27:24;;;;;;;4.05;2.30;;;20.60;85.00;;;;;;4989386;28;20455;-61
2021/07/04 04:29:49;;;;;;;6.78;2.08;;;20.60;85.00;;;;;;4993779;28;20030;-61
2021/07/04 04:32:15;;;;;;;5.18;1.70;;;20.60;85.10;;;;;;4993981;28;20070;-61
2021/07/04 04:34:41;;;;;;;10.07;2.00;;;20.60;85.00;;;;;;5003883;28;20114;-61
2021/07/04 04:37:07;;;;;;;4.03;2.00;;;20.60;85.20;;;;;;4975302;28;20042;-61
2021/07/04 04:39:32;;;;;;;6.05;2.13;;;20.60;85.30;;;;;;4993669;28;20077;-60
2021/07/04 04:41:58;;;;;;;6.03;2.08;;;20.60;85.30;;;;;;4976775;28;20109;-61
2021/07/04 04:44:24;;;;;;;3.60;2.10;;;20.60;85.20;;;;;;4992944;28;20026;-61
2021/07/04 04:46:49;;;;;;;1.75;1.65;;;20.60;85.10;;;;;;4992807;28;20045;-61
2021/07/04 04:49:15;;;;;;;4.90;1.98;;;20.60;85.10;;;;;;4981528;28;20113;-61
2021/07/04 04:51:40;;;;;;;7.70;2.05;;;20.60;85.10;;;;;;4996192;28;20027;-62
2021/07/04 04:54:06;;;;;;;4.40;2.15;;;20.60;85.00;;;;;;4993326;28;20027;-61
2021/07/04 04:56:32;;;;;;;3.67;2.13;;;20.60;85.00;;;;;;4979340;28;20033;-61
2021/07/04 04:58:58;;;;;;;8.75;2.22;;;20.60;85.00;;;;;;4998667;28;20026;-60
2021/07/04 05:01:26;;;;;;;6.88;2.15;;;20.60;85.00;;;;;;4996349;28;20030;-60
2021/07/04 05:03:52;;;;;;;3.28;1.95;;;20.60;85.00;;;;;;4994376;28;20467;-60
2021/07/04 05:06:17;;;;;;;4.72;2.05;;;20.60;85.10;;;;;;4982134;28;20034;-61
2021/07/04 05:08:43;;;;;;;8.85;2.30;;;20.60;85.30;;;;;;4978790;28;20038;-61
2021/07/04 05:11:09;;;;;;;4.63;2.00;;;20.40;85.00;;;;;;4995776;28;20022;-61
2021/07/04 05:13:35;;;;;;;10.68;2.33;;;20.60;85.30;;;;;;4996749;28;20097;-61
2021/07/04 05:16:01;;;;;;;5.22;2.33;;;20.60;85.30;;;;;;4982064;28;20022;-62
2021/07/04 05:18:26;;;;;;;8.15;2.38;;;20.60;85.50;;;;;;4992750;28;20085;-62
2021/07/04 05:20:52;;;;;;;6.05;2.20;;;20.60;85.40;;;;;;4998620;28;20042;-60
2021/07/04 05:23:17;;;;;;;6.68;2.33;;;20.60;85.40;;;;;;5012413;28;20181;-61
2021/07/04 05:25:43;;;;;;;2.70;2.00;;;20.60;85.40;;;;;;4994858;28;20376;-61
2021/07/04 05:28:08;;;;;;;7.70;2.20;;;20.60;85.30;;;;;;5011681;28;20033;-62
2021/07/04 05:30:34;;;;;;;4.63;2.10;;;20.60;85.30;;;;;;5011923;28;20028;-62
2021/07/04 05:33:00;;;;;;;4.20;2.03;;;20.60;85.20;;;;;;5011672;28;20025;-62
2021/07/04 05:35:27;;;;;;;8.77;2.80;;;20.60;85.20;;;;;;5012723;28;20037;-60
2021/07/04 05:37:52;;;;;;;7.32;2.40;;;20.60;85.30;;;;;;5009396;28;20059;-61
2021/07/04 05:40:18;;;;;;;10.90;2.38;;;20.60;85.30;;;;;;5027632;28;20076;-61
2021/07/04 05:42:44;;;;;;;9.02;2.70;;;20.70;85.30;;;;;;5011597;28;20661;-60
2021/07/04 05:45:17;;;;;;;6.88;2.20;;;20.60;85.30;;;;;;5011327;28;20120;-60
2021/07/04 05:47:42;;;;;;;5.93;2.20;;;20.70;85.40;;;;;;5025601;28;20025;-60
2021/07/04 05:50:08;;;;;;;7.10;2.30;;;20.70;85.40;;;;;;5007701;28;20022;-62
2021/07/04 05:52:33;;;;;;;7.88;2.38;;;20.70;85.40;;;;;;5011439;28;20474;-61
2021/07/04 05:54:59;;;;;;;10.13;2.85;;;20.70;85.60;;;;;;5011940;28;20040;-60
2021/07/04 05:57:24;;;;;;;4.20;2.28;;;20.70;85.90;;;;;;5026334;28;20048;-62
2021/07/04 05:59:50;;;;;;;6.05;2.50;;;20.70;86.30;;;;;;5020951;28;20045;-61
2021/07/04 06:02:15;;;;;;;7.85;3.03;;;20.70;86.40;;;;;;5011542;28;20453;-61
2021/07/04 06:04:41;;;;;;;6.45;2.90;;;20.70;86.80;;;;;;5011591;28;20038;-60
2021/07/04 06:07:06;;;;;;;8.80;2.90;;;20.70;86.80;;;;;;5011929;28;20363;-61
2021/07/04 06:09:32;;;;;;;6.00;2.40;;;20.70;86.80;;;;;;5011884;28;20054;-61
2021/07/04 06:11:57;;;;;;;8.50;3.28;;;20.70;86.80;;;;;;5010276;28;20109;-60
2021/07/04 06:14:23;;;;;;;12.05;2.92;;;20.70;87.20;;;;;;5011973;28;20032;-61
2021/07/04 06:16:48;;;;;;;12.93;3.50;;;20.70;86.40;;;;;;5032266;28;20022;-61
2021/07/04 06:19:14;;;;;;;14.27;3.20;;;20.70;86.50;;;;;;5011638;28;20486;-62
2021/07/04 06:21:39;;;;;;;13.60;3.20;;;20.70;86.30;;;;;;5020219;28;20055;-61
2021/07/04 06:24:05;;;;;;;9.25;2.95;;;20.70;86.40;;;;;;5020692;28;20032;-61
2021/07/04 06:26:31;;;;;;;8.73;2.85;;;20.80;86.90;;;;;;4981296;28;20513;-60
2021/07/04 06:28:56;;;;;;;7.15;2.75;;;20.80;87.00;;;;;;4997820;28;20038;-61
2021/07/04 06:31:23;;;;;;;9.63;3.55;;;20.80;87.00;;;;;;5011944;28;20053;-60
2021/07/04 06:33:49;;;;;;;14.68;3.85;;;20.80;86.90;;;;;;5007284;28;20530;-62
2021/07/04 06:36:14;;;;;;;6.90;3.13;;;20.80;86.90;;;;;;5016616;28;20030;-61
2021/07/04 06:38:40;;;;;;;8.13;3.03;;;20.80;86.60;;;;;;4999821;28;20030;-60
2021/07/04 06:41:05;;;;;;;7.35;2.95;;;20.80;86.70;;;;;;5002393;28;20479;-62
2021/07/04 06:43:31;;;;;;;10.32;2.88;;;20.80;86.50;;;;;;5022539;28;20037;-62
2021/07/04 06:45:56;;;;;;;9.93;3.40;;;20.80;86.50;;;;;;5017867;28;20030;-62
2021/07/04 06:48:22;;;;;;;7.00;2.72;;;20.90;86.50;;;;;;5001531;28;20069;-61
2021/07/04 06:50:48;;;;;;;4.43;2.53;;;20.90;86.10;;;;;;5001975;28;20474;-60
2021/07/04 06:53:13;;;;;;;7.75;2.70;;;20.90;85.80;;;;;;5006835;28;20134;-62
2021/07/04 06:55:39;;;;;;;3.83;2.53;;;20.90;85.60;;;;;;5004364;28;20053;-60
2021/07/04 06:58:04;;;;;;;5.60;3.00;;;20.90;85.50;;;;;;5008296;28;20034;-60
2021/07/04 07:00:30;;;;;;;6.85;3.00;;;20.90;85.50;;;;;;5003773;28;20060;-62
2021/07/04 07:02:56;;;;;;;7.50;3.00;;;20.90;85.60;;;;;;5001451;28;20048;-62
2021/07/04 07:05:21;;;;;;;9.50;2.83;;;21.00;85.50;;;;;;5003953;28;20022;-61
2021/07/04 07:07:47;;;;;;;7.10;2.80;;;21.00;85.90;;;;;;5022371;28;20030;-62
2021/07/04 07:10:13;;;;;;;5.90;2.92;;;21.00;85.70;;;;;;5000958;28;20034;-61
2021/07/04 07:12:39;;;;;;;9.10;2.95;;;21.00;84.90;;;;;;4992295;28;20372;-62
2021/07/04 07:15:06;;;;;;;4.47;3.00;;;21.00;84.90;;;;;;5011418;28;20104;-62
2021/07/04 07:17:32;;;;;;;7.72;2.42;;;21.10;84.80;;;;;;4988088;28;20022;-61
2021/07/04 07:19:57;;;;;;;6.32;3.00;;;21.10;84.70;;;;;;4967248;28;20042;-61
2021/07/04 07:22:23;;;;;;;8.75;3.15;;;21.10;84.50;;;;;;4985598;28;20049;-61
2021/07/04 07:24:49;;;;;;;5.15;3.03;;;21.10;84.80;;;;;;4943456;28;20065;-62
2021/07/04 07:27:14;;;;;;;8.32;3.25;;;21.10;84.70;;;;;;4992615;28;20022;-62
2021/07/04 07:29:40;;;;;;;4.68;2.60;;;21.20;84.70;;;;;;5002644;28;20081;-61
2021/07/04 07:32:06;;;;;;;5.47;2.95;;;21.20;85.10;;;;;;4958934;28;20031;-61
2021/07/04 07:34:31;;;;;;;5.32;2.83;;;21.20;85.30;;;;;;5001550;28;20038;-61
2021/07/04 07:36:57;;;;;;;7.78;2.67;;;21.20;85.30;;;;;;4966473;28;20061;-62
2021/07/04 07:39:23;;;;;;;5.45;2.50;;;21.20;85.40;;;;;;4953299;28;20450;-62
2021/07/04 07:41:48;;;;;;;5.32;3.00;;;21.20;85.30;;;;;;4981984;28;20489;-61
2021/07/04 07:44:14;;;;;;;6.05;2.72;;;21.30;85.40;;;;;;4989284;28;20391;-60
2021/07/04 07:46:40;;;;;;;5.38;3.25;;;21.30;85.20;;;;;;4986788;28;20041;-62
2021/07/04 07:49:06;;;;;;;5.43;2.88;;;21.40;85.40;;;;;;5002735;28;20045;-62
2021/07/04 07:51:31;;;;;;;6.70;2.80;;;21.30;85.50;;;;;;4967684;28;20014;-61
2021/07/04 07:53:57;;;;;;;8.32;3.13;;;21.40;85.60;;;;;;4986074;28;20034;-61
2021/07/04 07:56:22;;;;;;;7.28;2.70;;;21.40;85.40;;;;;;5004878;28;20394;-61
2021/07/04 07:58:48;;;;;;;4.95;2.90;;;21.40;85.60;;;;;;5004271;28;20072;-61
2021/07/04 08:01:15;;;;;;;3.00;2.67;;;21.40;85.80;;;;;;4964445;28;20300;-62
2021/07/04 08:03:40;;;;;;;4.97;3.58;;;21.40;85.70;;;;;;4988748;28;20026;-63
2021/07/04 08:06:06;;;;;;;5.57;3.60;;;21.50;85.70;;;;;;4989170;28;20041;-61
2021/07/04 08:08:31;;;;;;;6.90;3.42;;;21.50;85.60;;;;;;4988986;28;20158;-60
2021/07/04 08:10:57;;;;;;;3.90;3.30;;;21.50;85.80;;;;;;4989077;28;20117;-61
2021/07/04 08:13:23;;;;;;;5.32;3.40;;;21.50;86.00;;;;;;4986917;28;20157;-60
2021/07/04 08:15:48;;;;;;;4.63;3.35;;;21.50;86.10;;;;;;4987902;28;20061;-63
2021/07/04 08:18:14;;;;;;;6.47;3.22;;;21.50;86.20;;;;;;4971424;28;20042;-60
2021/07/04 08:20:39;;;;;;;6.00;4.00;;;21.50;86.50;;;;;;4986142;28;20089;-62
2021/07/04 08:23:05;;;;;;;6.43;3.72;;;21.50;86.70;;;;;;4990064;28;20174;-62
2021/07/04 08:25:30;;;;;;;7.72;3.60;;;21.50;87.10;;;;;;4974258;28;20557;-61
2021/07/04 08:27:56;;;;;;;14.95;4.63;;;21.50;87.40;;;;;;5025167;28;20038;-61
2021/07/04 08:30:22;;;;;;;12.73;3.75;;;21.50;88.00;;;;;;4999625;28;20022;-62
2021/07/04 08:32:47;;;;;;;9.80;3.95;;;21.50;87.60;;;;;;5019832;28;20157;-61
2021/07/04 08:35:13;;;;;;;38.42;6.72;;;21.50;87.20;;;;;;4989550;28;20026;-60
2021/07/04 08:37:39;;;;;;;45.83;7.72;;;21.50;87.10;;;;;;5020488;28;20116;-61
2021/07/04 08:40:05;;;;;;;36.80;6.07;;;21.60;87.10;;;;;;4989433;28;20030;-61
2021/07/04 08:42:31;;;;;;;49.88;7.15;;;21.60;87.60;;;;;;5022765;28;20018;-63
2021/07/04 08:44:56;;;;;;;26.50;5.10;;;21.50;87.60;;;;;;5007496;28;20406;-62
2021/07/04 08:47:23;;;;;;;28.38;5.63;;;21.60;87.40;;;;;;5009604;28;20492;-61
2021/07/04 08:49:51;;;;;;;25.20;5.13;;;21.60;87.90;;;;;;5019719;28;20121;-62
2021/07/04 08:52:17;;;;;;;18.00;5.50;;;21.60;88.10;;;;;;5006530;28;20033;-61
2021/07/04 08:54:43;;;;;;;36.83;6.70;;;21.60;87.60;;;;;;5006077;28;20022;-61
2021/07/04 08:57:09;;;;;;;30.42;6.03;;;21.60;87.90;;;;;;5011079;28;20034;-62
2021/07/04 08:59:38;;;;;;;33.38;5.65;;;21.60;87.80;;;;;;4993864;28;20387;-62
2021/07/04 09:02:04;;;;;;;68.60;9.30;;;21.70;87.60;;;;;;5008916;28;20026;-61
2021/07/04 09:04:29;;;;;;;37.55;6.43;;;21.70;87.60;;;;;;5024637;28;20037;-61
2021/07/04 09:06:56;;;;;;;29.35;6.13;;;21.80;87.60;;;;;;5022144;28;20358;-62
2021/07/04 09:09:27;;;;;;;45.65;7.68;;;21.80;87.60;;;;;;5011436;28;20389;-60
2021/07/04 09:11:57;;;;;;;66.93;8.45;;;21.80;87.40;;;;;;5011197;28;20029;-61
2021/07/04 09:14:41;;;;;;;44.13;6.90;;;21.80;87.90;;;;;;4993355;28;20537;-62
2021/07/04 09:17:14;;;;;;;34.70;6.38;;;21.90;87.90;;;;;;5012062;28;20120;-60
2021/07/04 09:19:52;;;;;;;40.08;7.13;;;21.90;87.90;;;;;;5025207;28;20030;-60
2021/07/04 09:22:17;;;;;;;38.00;7.35;;;21.90;88.00;;;;;;4988525;28;20529;-60
2021/07/04 09:24:43;;;;;;;28.52;6.18;;;21.90;88.30;;;;;;5010671;28;20030;-60
2021/07/04 09:27:13;;;;;;;39.08;7.88;;;21.90;88.50;;;;;;4992798;28;20040;-62
2021/07/04 09:29:49;;;;;;;40.30;8.23;;;22.00;88.30;;;;;;5024984;28;20125;-62
2021/07/04 09:32:19;;;;;;;45.97;8.15;;;22.00;88.30;;;;;;4992546;28;20026;-61
2021/07/04 09:34:58;;;;;;;44.25;8.38;;;22.10;88.30;;;;;;5008385;28;20157;-62
2021/07/04 09:37:48;;;;;;;43.72;8.32;;;22.00;88.30;;;;;;4992721;28;20054;-61
2021/07/04 09:40:26;;;;;;;53.30;8.20;;;22.10;88.30;;;;;;5002930;28;20018;-61
2021/07/04 09:42:52;;;;;;;52.33;8.98;;;22.10;88.50;;;;;;5005670;28;20038;-61
2021/07/04 09:45:18;;;;;;;74.60;9.75;;;22.20;88.50;;;;;;5005419;28;20410;-61
2021/07/04 09:47:50;;;;;;;57.00;9.27;;;22.20;88.30;;;;;;5007482;28;20026;-61
2021/07/04 09:50:16;;;;;;;100.30;12.07;;;22.20;87.90;;;;;;5009412;28;20112;-60
2021/07/04 09:52:53;;;;;;;70.57;9.93;;;22.30;88.10;;;;;;4990379;28;20113;-61
2021/07/04 09:55:20;;;;;;;58.15;10.63;;;22.30;88.00;;;;;;4980019;28;21592;-61
2021/07/04 09:57:58;;;;;;;92.45;10.73;;;22.40;88.00;;;;;;5022946;28;20113;-61
2021/07/04 10:00:26;;;;;;;55.75;9.48;;;22.40;87.80;;;;;;5009360;28;20053;-61
2021/07/04 10:03:14;;;;;;;109.53;13.52;;;22.40;87.60;;;;;;5015763;28;20022;-61
2021/07/04 10:05:43;;;;;;;98.75;11.27;;;22.50;87.40;;;;;;5007620;28;20469;-63
2021/07/04 10:08:18;;;;;;;77.90;12.55;;;22.50;87.20;;;;;;4998934;28;20097;-62
2021/07/04 10:10:44;;;;;;;91.63;13.15;;;22.50;87.20;;;;;;5001847;28;20033;-62
2021/07/04 10:13:09;;;;;;;98.63;12.73;;;22.50;87.00;;;;;;4986821;28;20030;-60
2021/07/04 10:15:35;;;;;;;77.43;9.95;;;22.50;86.80;;;;;;5005347;28;20034;-63
2021/07/04 10:18:01;;;;;;;59.97;8.55;;;22.50;86.70;;;;;;5002711;28;20030;-63
2021/07/04 10:20:26;;;;;;;82.75;10.75;;;22.60;86.80;;;;;;5006950;28;20037;-61
2021/07/04 10:22:52;;;;;;;68.78;9.68;;;22.60;86.80;;;;;;4980259;28;20061;-62
2021/07/04 10:25:17;;;;;;;52.72;8.18;;;22.60;86.80;;;;;;5023604;28;20033;-61
2021/07/04 10:27:43;;;;;;;57.28;9.73;;;22.60;86.60;;;;;;5003050;28;20110;-61
2021/07/04 10:30:09;;;;;;;71.57;12.10;;;22.60;86.60;;;;;;5017442;28;20038;-62
2021/07/04 10:32:34;;;;;;;82.65;11.25;;;22.70;86.60;;;;;;4986254;28;20478;-62
2021/07/04 10:35:10;;;;;;;74.40;11.75;;;22.70;86.40;;;;;;4991993;28;20085;-62
2021/07/04 10:37:37;;;;;;;97.00;11.98;;;22.80;86.20;;;;;;5003195;28;20089;-62
2021/07/04 10:40:14;;;;;;;88.47;11.00;;;22.80;86.10;;;;;;4996889;28;20024;-63
2021/07/04 10:42:39;;;;;;;79.88;12.00;;;22.80;85.60;;;;;;5004701;28;20110;-62
2021/07/04 10:45:25;;;;;;;71.05;9.98;;;22.90;85.30;;;;;;4983103;28;20113;-61
2021/07/04 10:47:51;;;;;;;;;;;22.90;84.70;;;;;;4991036;28;20029;-64
2021/07/04 10:50:18;;;;;;;78.55;11.27;;;23.00;84.70;;;;;;5022373;28;19906;-62
2021/07/04 10:52:46;;;;;;;66.65;10.13;;;23.00;84.60;;;;;;5006663;28;20630;-61
2021/07/04 10:55:14;;;;;;;93.57;10.65;;;23.00;84.80;;;;;;4992024;28;20394;-63
2021/07/04 10:57:49;;;;;;;90.25;12.13;;;23.10;84.70;;;;;;5007456;28;20033;-62
2021/07/04 11:00:25;;;;;;;120.00;12.55;;;23.10;84.30;;;;;;5008143;28;20101;-61
2021/07/04 11:02:57;;;;;;;113.07;12.05;;;23.20;84.40;;;;;;4985066;28;20038;-61
2021/07/04 11:05:34;;;;;;;87.60;11.48;;;23.20;84.20;;;;;;4994704;28;20021;-63
2021/07/04 11:07:59;;;;;;;76.75;10.55;;;23.20;83.80;;;;;;5023149;28;20041;-60
2021/07/04 11:10:39;;;;;;;95.88;12.15;;;23.20;83.60;;;;;;5009725;28;20026;-61
2021/07/04 11:13:07;;;;;;;62.33;9.63;;;23.30;83.00;;;;;;5007726;28;20049;-62
2021/07/04 11:15:34;;;;;;;73.78;10.25;;;23.30;82.60;;;;;;5010278;28;20077;-61
2021/07/04 11:18:01;;;;;;;66.72;9.07;;;23.30;82.20;;;;;;5005805;28;20069;-61
2021/07/04 11:20:30;;;;;;;100.80;12.85;;;23.40;81.90;;;;;;5006925;28;20046;-61
2021/07/04 11:23:00;;;;;;;80.32;12.02;;;23.40;81.80;;;;;;4993649;28;20095;-63
2021/07/04 11:25:57;;;;;;;102.65;11.20;;;23.40;81.60;;;;;;4974585;28;20034;-60
2021/07/04 11:28:27;;;;;;;102.22;12.52;;;23.50;81.10;;;;;;4994460;28;20033;-62
2021/07/04 11:30:59;;;;;;;111.72;12.98;;;23.50;81.00;;;;;;5006942;28;20022;-63
2021/07/04 11:33:43;;;;;;;256.52;25.48;;;23.60;81.00;;;;;;5024556;28;20022;-62
2021/07/04 11:36:14;;;;;;;108.82;12.70;;;23.60;80.90;;;;;;5010472;28;20033;-62
2021/07/04 11:38:45;;;;;;;139.30;15.73;;;23.60;80.60;;;;;;5007945;28;20034;-62
2021/07/04 11:41:22;;;;;;;96.70;12.20;;;23.70;80.60;;;;;;4988922;28;20152;-61
2021/07/04 11:43:48;;;;;;;124.38;14.00;;;23.70;80.30;;;;;;5006947;28;20093;-61
2021/07/04 11:46:19;;;;;;;90.88;11.48;;;23.70;80.10;;;;;;5020983;28;20037;-61
2021/07/04 11:48:48;;;;;;;98.10;10.18;;;23.80;80.00;;;;;;4991645;28;20457;-61
2021/07/04 11:51:26;;;;;;;72.85;8.88;;;23.90;80.00;;;;;;5008729;28;20506;-63
2021/07/04 11:53:53;;;;;;;86.78;10.98;;;23.90;79.60;;;;;;5005013;28;20049;-62
2021/07/04 11:56:19;;;;;;;84.32;10.50;;;23.90;79.40;;;;;;4990068;28;20029;-62
2021/07/04 11:58:44;;;;;;;95.88;12.25;;;23.90;79.70;;;;;;5002635;28;20026;-62
2021/07/04 12:01:21;;;;;;;107.70;12.98;;;24.00;79.60;;;;;;5006015;28;20534;-61
2021/07/04 12:03:54;;;;;;;86.10;11.32;;;24.00;79.60;;;;;;4972381;28;20026;-62
2021/07/04 12:06:20;;;;;;;121.95;12.43;;;24.00;79.00;;;;;;5006454;28;20445;-63
2021/07/04 12:09:03;;;;;;;77.60;10.63;;;24.00;79.00;;;;;;5006279;28;20045;-62
2021/07/04 12:11:52;;;;;;;91.78;10.48;;;24.10;78.90;;;;;;5009818;28;20030;-62
2021/07/04 12:14:22;;;;;;;74.25;10.98;;;24.00;78.80;;;;;;4995771;28;20034;-62
2021/07/04 12:16:47;;;;;;;83.78;12.30;;;24.00;78.70;;;;;;5002997;28;20037;-61
2021/07/04 12:19:29;;;;;;;88.25;10.98;;;24.00;78.40;;;;;;4988817;28;20104;-62
2021/07/04 12:21:55;;;;;;;70.95;9.40;;;24.00;78.60;;;;;;5002977;28;20054;-60
2021/07/04 12:24:20;;;;;;;73.75;9.38;;;24.10;79.00;;;;;;5005563;28;20559;-60
2021/07/04 12:26:47;;;;;;;82.70;9.55;;;24.10;78.10;;;;;;5019297;28;20668;-60
2021/07/04 12:29:12;;;;;;;100.40;11.30;;;24.10;78.40;;;;;;4990197;28;20362;-62
2021/07/04 12:31:38;;;;;;;126.35;13.70;;;24.10;78.50;;;;;;5007954;28;20029;-62
2021/07/04 12:34:03;;;;;;;90.50;11.32;;;24.20;79.10;;;;;;5007905;28;20046;-60
2021/07/04 12:36:29;;;;;;;75.95;11.45;;;24.20;78.90;;;;;;4988991;28;20089;-60
2021/07/04 12:38:56;;;;;;;62.85;9.38;;;24.20;78.40;;;;;;4989972;28;20104;-61
2021/07/04 12:41:21;;;;;;;62.35;9.63;;;24.30;78.20;;;;;;5008275;28;20596;-62